Flight Track Log - Related Links

Times and Time Zones

All times are in EDT time to prevent confusion due to time zone crossing. See the N860BA flight status page for this flight to view local times or setup timezone preferences in your user account.

Time Position Orientation Groundspeed Altitude Reporting Facility
EDT Latitude Longitude Course Direction KTS MPH feet Rate Location/Type
Thu 06:19:22 PM 25.2547 -77.0242 281° West 461 531 16,500  Level Miami Center
Thu 06:20:22 PM 25.2775 -77.1483 281° West 402 463 17,600 1,300 Climbing Miami Center
Thu 06:21:22 PM 25.3253 -77.2725 293° West 408 470 19,100 1,700 Climbing Miami Center
Thu 06:22:22 PM 25.3708 -77.4017 291° West 425 489 21,000 1,950 Climbing Miami Center
Thu 06:23:22 PM 25.4203 -77.5375 292° West 436 502 23,000 1,950 Climbing Miami Center
Thu 06:24:22 PM 25.4636 -77.6622 291° West 436 502 24,900 1,900 Climbing Miami Center
Thu 06:25:22 PM 25.5069 -77.7867 291° West 436 502 26,800 1,950 Climbing Miami Center
Thu 06:26:22 PM 25.5478 -77.9044 291° West 431 496 28,800 1,500 Climbing Miami Center
Thu 06:27:22 PM 25.5928 -78.0292 292° West 431 496 29,800 1,000 Climbing Miami Center
Thu 06:28:22 PM 25.6378 -78.1567 291° West 436 502 30,800 1,000 Climbing Miami Center
Thu 06:29:22 PM 25.6825 -78.2861 291° West 441 507 31,800 1,050 Climbing Miami Center
Thu 06:30:22 PM 25.7272 -78.4158 291° West 447 514 32,900 1,000 Climbing Miami Center
Thu 06:31:22 PM 25.7675 -78.5456 289° West 452 520 33,800 950 Climbing Miami Center
Thu 06:32:22 PM 25.8161 -78.6708 293° West 447 514 34,800 1,000 Climbing Miami Center
Thu 06:33:22 PM 25.8586 -78.7961 291° West 447 514 35,800 1,000 Climbing Miami Center
Thu 06:34:22 PM 25.8986 -78.9192 290° West 436 502 36,800 1,000 Climbing Miami Center
Thu 06:35:22 PM 25.9386 -79.0403 290° West 429 494 37,800 600 Climbing Miami Center
Thu 06:36:22 PM 25.9914 -79.1519 298° West 424 488 38,000 50 Climbing Miami Center
Thu 06:37:22 PM 26.0753 -79.2486 314° West 418 481 37,900 -50 Descending Miami Center
Thu 06:38:22 PM 26.1594 -79.3475 313° West 429 494 37,900  Level Miami Center
Thu 06:39:22 PM 26.2456 -79.4442 315° West 434 499 37,900 50 Level Miami Center
Thu 06:40:22 PM 26.3253 -79.5433 312° West 434 499 38,000 50 Climbing Miami Center
Thu 06:41:22 PM 26.3967 -79.6353 311° West 434 499 38,000  Level Miami Center
Thu 06:42:22 PM 26.4822 -79.7486 310° West 434 499 38,000  Level Miami Center
Thu 06:43:22 PM 26.5511 -79.8433 309° West 434 499 38,000  Level Miami Center
Thu 06:44:22 PM 26.6047 -79.9747 295° West 424 488 38,000  Level Miami Center
Thu 06:45:22 PM 26.6314 -80.0939 284° West 431 496 38,000  Level Miami Center
Thu 06:46:22 PM 26.6661 -80.2228 287° West 436 502 38,000  Level Miami Center
Thu 06:47:22 PM 26.7006 -80.3633 285° West 436 502 38,000  Level Miami Center
Thu 06:48:22 PM 26.7311 -80.4806 286° West 436 502 38,000  Level Miami Center
Thu 06:49:22 PM 26.7672 -80.6189 286° West 436 502 38,000 -50 Level Miami Center
Thu 06:50:22 PM 26.7994 -80.7456 286° West 430 495 37,900 -50 Descending Miami Center
Thu 06:51:22 PM 26.8292 -80.8722 285° West 425 489 37,900  Level Miami Center
Thu 06:52:22 PM 26.8633 -80.9992 287° West 424 488 37,900  Level Miami Center
Thu 06:53:22 PM 26.8936 -81.1072 287° West 419 482 37,900  Level Miami Center
Thu 06:54:22 PM 26.9253 -81.2389 285° West 419 482 37,900 50 Level Miami Center
Thu 06:55:22 PM 26.9606 -81.3775 286° West 419 482 38,000 50 Climbing Miami Center
Thu 06:56:22 PM 26.9942 -81.5047 287° West 419 482 38,000  Level Miami Center
Thu 06:57:22 PM 27.0256 -81.6317 286° West 419 482 38,000  Level Miami Center
Thu 06:58:22 PM 27.0531 -81.7472 285° West 419 482 38,000  Level Miami Center
Thu 06:59:22 PM 27.0878 -81.8861 286° West 419 482 38,000  Level Miami Center
Thu 07:00:22 PM 27.1192 -82.0089 286° West 419 482 38,000  Level Miami Center
Thu 07:01:22 PM 27.1500 -82.1317 286° West 419 482 38,000  Level Miami Center
Thu 07:02:22 PM 27.1753 -82.2400 285° West 411 473 38,000 -50 Level Miami Center
Thu 07:03:22 PM 27.2100 -82.3722 286° West 411 473 37,900 -50 Descending Miami Center
Thu 07:04:22 PM 27.2367 -82.4903 284° West 406 467 37,900 50 Level Miami Center
Thu 07:05:22 PM 27.2653 -82.6108 285° West 398 458 38,000 50 Climbing Miami Center
Thu 07:06:22 PM 27.2961 -82.7314 286° West 404 465 38,000  Level Miami Center
Thu 07:07:22 PM 27.3208 -82.8403 284° West 404 465 38,000 -50 Level Miami Center
Thu 07:08:22 PM 27.3547 -82.9728 286° West 404 465 37,900 -50 Descending Miami Center
Thu 07:09:22 PM 27.3831 -83.0933 285° West 404 465 37,900  Level Miami Center
Thu 07:10:22 PM 27.4133 -83.2142 286° West 404 465 37,900  Level Miami Center
Thu 07:11:22 PM 27.4414 -83.3350 285° West 404 465 37,900  Level Miami Center
Thu 07:12:22 PM 27.4672 -83.4533 284° West 404 465 37,900  Level Miami Center
Thu 07:13:22 PM 27.4972 -83.5719 286° West 404 465 37,900  Level Miami Center
Thu 07:14:22 PM 27.5228 -83.6928 283° West 404 465 37,900  Level Miami Center
Thu 07:15:22 PM 27.5294 -83.8150 274° West 398 458 37,900  Level Miami Center
Thu 07:16:22 PM 27.5336 -83.9414 272° West 393 452 37,900  Level Miami Center
Thu 07:17:22 PM 27.5339 -84.0656 270° West 393 452 37,900  Level Miami Center
Thu 07:18:22 PM 27.5358 -84.1894 271° West 393 452 37,900  Level Miami Center
Thu 07:19:22 PM 27.5633 -84.3058 285° West 398 458 37,900  Level Miami Center
Thu 07:21:27 PM 27.6367 -84.5275 291° West 379 436 37,900  Level Jacksonville Center
Thu 07:22:26 PM 27.6792 -84.6428 293° West 384 442 37,900  Level Jacksonville Center
Thu 07:23:26 PM 27.7192 -84.7583 291° West 389 448 37,900  Level Jacksonville Center
Thu 07:24:26 PM 27.7550 -84.8717 290° West 389 448 37,900  Level Jacksonville Center
Thu 07:25:27 PM 27.7908 -84.9825 290° West 384 442 37,900  Level Jacksonville Center
Thu 07:26:27 PM 27.8308 -85.0914 293° West 384 442 37,900  Level Jacksonville Center
Thu 07:27:26 PM 27.8642 -85.2069 288° West 384 442 37,900  Level Jacksonville Center
Thu 07:28:26 PM 27.9017 -85.3206 291° West 379 436 37,900  Level Jacksonville Center
Thu 07:29:26 PM 27.9350 -85.4317 289° West 379 436 37,900  Level Jacksonville Center
Thu 07:30:27 PM 27.9683 -85.5431 289° West 385 443 37,900  Level Jacksonville Center
Thu 07:31:27 PM 28.0014 -85.6519 289° West 379 436 37,900  Level Jacksonville Center
Thu 07:32:27 PM 28.0325 -85.7564 289° West 374 430 37,900  Level Jacksonville Center
Thu 07:33:26 PM 28.0675 -85.8656 290° West 369 425 37,900  Level Jacksonville Center
Thu 07:34:26 PM 28.1006 -85.9722 289° West 369 425 37,900  Level Jacksonville Center
Thu 07:35:27 PM 28.1333 -86.0886 288° West 374 430 37,900  Level Jacksonville Center
Thu 07:36:26 PM 28.1678 -86.2028 289° West 369 425 37,900  Level Jacksonville Center
Thu 07:37:26 PM 28.2006 -86.3119 289° West 369 425 37,900  Level Jacksonville Center
Thu 07:38:26 PM 28.2328 -86.4261 288° West 372 428 37,900  Level Jacksonville Center
Thu 07:39:26 PM 28.2653 -86.5333 289° West 370 426 37,900  Level Jacksonville Center
Thu 07:40:27 PM 28.2997 -86.6478 289° West 375 432 37,900  Level Jacksonville Center
Thu 07:41:26 PM 28.3258 -86.7500 286° West 363 418 37,900  Level Jacksonville Center
Thu 07:42:26 PM 28.3619 -86.8622 290° West 369 425 37,900  Level Jacksonville Center
Thu 07:43:26 PM 28.3958 -86.9792 288° West 369 425 37,900  Level Jacksonville Center
Thu 07:44:26 PM 28.4467 -87.0828 299° West 369 425 37,900  Level Jacksonville Center
Thu 07:45:26 PM 28.4978 -87.1817 300° West 369 425 37,900  Level Jacksonville Center
Thu 07:46:27 PM 28.5486 -87.2831 300° West 375 432 37,900  Level Jacksonville Center
Thu 07:47:26 PM 28.6011 -87.3894 299° West 380 437 37,900  Level Jacksonville Center
Thu 07:48:49 PM 28.6669 -87.5264 299° West 371 427 37,900  Level Houston Center
Thu 07:49:51 PM 28.7181 -87.6314 299° West 374 430 37,900  Level Houston Center
Thu 07:50:53 PM 28.7692 -87.7347 299° West 374 430 37,900  Level Houston Center
Thu 07:51:55 PM 28.8189 -87.8386 299° West 373 429 37,900  Level Houston Center
Thu 07:52:58 PM 28.8703 -87.9431 299° West 375 432 37,900  Level Houston Center
Thu 07:53:59 PM 28.9211 -88.0486 299° West 377 434 37,900  Level Houston Center
Thu 07:55:01 PM 28.9808 -88.1772 298° West 381 438 37,900 -629 Level Houston Center
Thu 07:56:03 PM 29.0317 -88.2825 299° West 379 436 36,600 -1,694 Descending Houston Center
Thu 07:57:05 PM 29.0856 -88.3919 299° West 390 449 34,400 -2,177 Descending Houston Center
Thu 07:58:07 PM 29.1406 -88.5075 299° West 408 470 32,100 -2,226 Descending Houston Center
Thu 07:59:09 PM 29.1969 -88.6269 298° West 420 483 29,800 -2,208 Descending Houston Center
Thu 08:00:12 PM 29.2544 -88.7453 299° West 425 489 27,500 -2,448 Descending Houston Center
Thu 08:01:14 PM 29.3228 -88.8897 299° West 428 493 24,700 -2,468 Descending Houston Center
Thu 08:02:16 PM 29.3800 -89.0125 298° West 432 497 22,400 -2,226 Descending Houston Center
Thu 08:03:18 PM 29.4392 -89.1367 299° West 440 506 20,100 -2,226 Descending Houston Center
Thu 08:04:20 PM 29.4983 -89.2633 298° West 447 514 17,800 -2,323 Descending Houston Center
Thu 08:04:51 PM 29.5375 -89.3417 300° West 449 517 16,500 -2,129 Descending Houston Center
Thu 08:05:22 PM 29.5564 -89.3861 296° West 442 509 15,600 -2,250 Descending Houston Center
Thu 08:05:39 PM 29.5789 -89.4378 297° West 437 503 14,700 -2,226 Descending Houston Center
Thu 08:06:24 PM 29.6139 -89.5075 300° West 434 499 13,300 -2,262 Descending Houston Center
Thu 08:06:40 PM 29.6372 -89.5544 300° West 422 486 12,400 -2,226 Descending Houston Center
Thu 08:07:26 PM 29.6850 -89.6442 302° West 418 481 11,000 -778 Descending Houston Center
Thu 08:08:28 PM 29.7436 -89.7564 301° West 410 472 11,000  Level Houston Center
Thu 08:09:36 PM 29.8050 -89.8703 302° West 358 412 11,000 -624 Level Houston Center
Thu 08:10:33 PM 29.8456 -89.9428 303° West 313 360 9,700 -1,462 Descending Houston Center
Thu 08:11:35 PM 29.9161 -89.9864 332° Northwest 294 338 8,100 -1,548 Descending Houston Center
Thu 08:12:37 PM 29.9903 -90.0228 337° Northwest 291 335 6,500 -1,707 Descending Houston Center
Thu 08:13:38 PM 30.0767 -90.0647 337° Northwest 287 330 4,600 -1,742 Descending Houston Center
Thu 08:14:41 PM 30.0964 -90.1478 285° West 273 314 2,900 -1,138 Descending Houston Center
Thu 08:15:34 PM 30.0833 -90.2039 255° West 195 224 2,400 -950 Descending Houston Center
Thu 08:16:41 PM 30.0444 -90.2319 212° Southwest 122 140 1,000 -902 Descending Houston Center
Thu 08:17:47 PM 30.0131 -90.2425 196° South 139 160 400 -545 Descending Houston Center
Thu 08:19:00 PM 29.9833 -90.2500 225° Southwest  Level FlightAware Approximate

Login

Don't have an account? Register now (free) for customized features, flight alerts, and more!